createdAt,value
2019-01-25T00:02:21.852Z,14.6
2019-01-25T00:05:22.050Z,14.3
2019-01-25T00:08:22.154Z,14.8
2019-01-25T00:11:21.812Z,13.7
2019-01-25T00:14:22.186Z,13.6
2019-01-25T00:17:21.836Z,14.2
2019-01-25T00:20:22.154Z,13.4
2019-01-25T00:23:22.077Z,13.9
2019-01-25T00:26:22.011Z,14.5
2019-01-25T00:29:22.428Z,13.8
2019-01-25T00:32:22.350Z,13.5
2019-01-25T00:35:21.993Z,13.5
2019-01-25T00:38:22.000Z,14.1
2019-01-25T00:41:22.207Z,12.9
2019-01-25T00:44:22.139Z,13.5
2019-01-25T00:47:22.457Z,13.4
2019-01-25T00:50:23.791Z,13.6
2019-01-25T00:53:21.742Z,12.9
2019-01-25T00:56:21.943Z,12.4
2019-01-25T00:59:22.118Z,12.2
2019-01-25T01:02:22.275Z,12.7
2019-01-25T01:05:22.057Z,12.6
2019-01-25T01:08:21.924Z,12.9
2019-01-25T01:11:21.625Z,12.2
2019-01-25T01:14:21.634Z,12.5
2019-01-25T01:17:21.527Z,12.7
2019-01-25T01:20:22.066Z,12
2019-01-25T01:23:22.065Z,12.2
2019-01-25T01:26:21.879Z,13.1
2019-01-25T01:29:22.044Z,12.5
2019-01-25T01:32:22.038Z,12.1
2019-01-25T01:35:21.859Z,11.3
2019-01-25T01:38:22.701Z,12.3
2019-01-25T01:41:21.816Z,11.7
2019-01-25T01:44:21.790Z,12
2019-01-25T01:47:21.765Z,11.5
2019-01-25T01:50:21.747Z,11.9
2019-01-25T01:53:21.758Z,12.1
2019-01-25T01:56:21.641Z,11.3
2019-01-25T01:59:21.743Z,11.4
2019-01-25T02:02:21.874Z,11.5
2019-01-25T02:05:21.741Z,12
2019-01-25T02:08:21.752Z,11.8
2019-01-25T02:11:21.798Z,11.5
2019-01-25T02:14:21.799Z,11.5
2019-01-25T02:17:21.706Z,11.3
2019-01-25T02:20:22.192Z,11.4
2019-01-25T02:23:22.112Z,10.6
2019-01-25T02:26:21.751Z,11
2019-01-25T02:29:22.162Z,11.5
2019-01-25T02:32:21.656Z,10.6
2019-01-25T02:35:21.784Z,11.6
2019-01-25T02:38:22.036Z,10.6
2019-01-25T02:41:22.083Z,11.7
2019-01-25T02:44:21.829Z,10.4
2019-01-25T02:47:21.947Z,11.4
2019-01-25T02:50:21.775Z,11
2019-01-25T02:53:21.788Z,10.6
2019-01-25T02:56:22.003Z,10.5
2019-01-25T02:59:21.901Z,10.4
2019-01-25T03:02:21.710Z,10.9
2019-01-25T03:05:24.146Z,10.4
2019-01-25T03:08:22.151Z,10.7
2019-01-25T03:11:22.384Z,10.4
2019-01-25T03:14:21.740Z,10.7
2019-01-25T03:17:21.701Z,10.4
2019-01-25T03:20:21.892Z,10.8
2019-01-25T03:23:22.044Z,10.2
2019-01-25T03:26:22.170Z,10.6
2019-01-25T03:29:21.505Z,10.5
2019-01-25T03:32:21.843Z,10.3
2019-01-25T03:35:21.983Z,10.4
2019-01-25T03:38:21.553Z,10.7
2019-01-25T03:41:21.721Z,10.4
2019-01-25T03:44:21.842Z,10.1
2019-01-25T03:47:21.843Z,10.9
2019-01-25T03:50:21.735Z,11.1
2019-01-25T03:53:21.780Z,10.6
2019-01-25T03:56:21.502Z,10.6
2019-01-25T03:59:21.918Z,9.8
2019-01-25T04:02:21.742Z,10.7
2019-01-25T04:05:21.844Z,10.6
2019-01-25T04:08:21.870Z,10.8
2019-01-25T04:11:22.185Z,10.4
2019-01-25T04:14:21.875Z,10.5
2019-01-25T04:17:21.753Z,10.6
2019-01-25T04:20:21.794Z,10.2
2019-01-25T04:23:21.979Z,10.2
2019-01-25T04:26:22.091Z,10.7
2019-01-25T04:29:22.037Z,10.5
2019-01-25T04:32:21.765Z,10.7
2019-01-25T04:35:21.892Z,10
2019-01-25T04:38:21.591Z,10
2019-01-25T04:41:22.266Z,9.9
2019-01-25T04:44:21.617Z,9.5
2019-01-25T04:47:21.783Z,9.6
2019-01-25T04:50:21.742Z,9.9
2019-01-25T04:53:21.623Z,9.7
2019-01-25T04:56:22.000Z,9.3
2019-01-25T04:59:22.115Z,9.2
2019-01-25T05:02:21.641Z,9.5
2019-01-25T05:05:21.579Z,9.4
2019-01-25T05:08:23.525Z,9.3
2019-01-25T05:11:21.752Z,8.7
2019-01-25T05:14:21.523Z,8.8
2019-01-25T05:17:21.728Z,8.2
2019-01-25T05:20:21.583Z,8.7
2019-01-25T05:23:21.642Z,8.8
2019-01-25T05:26:21.909Z,8.5
2019-01-25T05:29:21.559Z,8.3
2019-01-25T05:32:22.045Z,8.6
2019-01-25T05:35:21.733Z,8.9
2019-01-25T05:38:21.965Z,9
2019-01-25T05:41:29.127Z,7.8
2019-01-25T05:44:21.475Z,8.2
2019-01-25T05:47:21.451Z,8.4
2019-01-25T05:50:22.089Z,8.4
2019-01-25T05:53:24.935Z,8.5
2019-01-25T05:56:22.023Z,8.3
2019-01-25T05:59:21.810Z,8.4
2019-01-25T06:02:24.950Z,8
2019-01-25T06:05:21.584Z,8.5
2019-01-25T06:08:21.483Z,7.9
2019-01-25T06:11:24.677Z,8.1
2019-01-25T06:14:21.478Z,8.4
2019-01-25T06:17:21.550Z,8.3
2019-01-25T06:20:25.551Z,8.4
2019-01-25T06:23:21.544Z,8.2
2019-01-25T06:26:21.780Z,8.2
2019-01-25T06:29:22.747Z,7.9
2019-01-25T06:32:21.782Z,7.6
2019-01-25T06:35:21.750Z,7.6
2019-01-25T06:38:21.818Z,9.2
2019-01-25T06:41:21.789Z,8.3
2019-01-25T06:44:22.104Z,11.4
2019-01-25T06:47:21.601Z,7.6
2019-01-25T06:50:22.423Z,8.1
2019-01-25T06:53:21.590Z,7.6
2019-01-25T06:56:21.790Z,7.2
2019-01-25T06:59:22.044Z,7.9
2019-01-25T07:02:21.954Z,7.5
2019-01-25T07:05:21.987Z,7.2
2019-01-25T07:08:21.850Z,8.4
2019-01-25T07:11:21.821Z,7.1
2019-01-25T07:14:22.015Z,6.8
2019-01-25T07:17:21.464Z,7.1
2019-01-25T07:20:21.684Z,7
2019-01-25T07:23:21.503Z,10.2
2019-01-25T07:26:22.142Z,7.2
2019-01-25T07:29:22.294Z,7.7
2019-01-25T07:32:21.869Z,7.2
2019-01-25T07:35:22.316Z,7.2
2019-01-25T07:38:21.641Z,7.3
2019-01-25T07:41:21.867Z,7.4
2019-01-25T07:44:22.162Z,7.6
2019-01-25T07:47:21.716Z,6.8
2019-01-25T07:50:21.742Z,8.5
2019-01-25T07:53:22.954Z,7.7
2019-01-25T07:56:22.746Z,7.8
2019-01-25T07:59:23.513Z,9.7
2019-01-25T08:02:22.118Z,7.4
2019-01-25T08:05:21.759Z,7.4
2019-01-25T08:08:22.000Z,8.8
2019-01-25T08:11:22.046Z,6.9
2019-01-25T08:14:21.864Z,7.5
2019-01-25T08:17:22.631Z,10.2
2019-01-25T08:20:21.878Z,7.7
2019-01-25T08:23:21.769Z,6.6
2019-01-25T08:26:23.594Z,6.4
2019-01-25T08:29:28.869Z,13
2019-01-25T08:32:21.519Z,13.7
2019-01-25T08:35:22.179Z,8.4
2019-01-25T08:38:22.297Z,9.3
2019-01-25T08:41:22.481Z,9.7
2019-01-25T08:44:21.943Z,9.8
2019-01-25T08:47:22.005Z,12
2019-01-25T08:50:22.370Z,10.7
2019-01-25T08:53:22.290Z,9.7
2019-01-25T08:56:22.786Z,8
2019-01-25T08:59:22.105Z,6.8
2019-01-25T09:02:21.901Z,8.7
2019-01-25T09:05:23.518Z,7.6
2019-01-25T09:08:21.439Z,7
2019-01-25T09:11:22.280Z,7.3
2019-01-25T09:14:21.918Z,6.7
2019-01-25T09:17:21.627Z,6.3
2019-01-25T09:20:21.871Z,6.6
2019-01-25T09:23:21.774Z,6.1
2019-01-25T09:26:21.384Z,6.8
2019-01-25T09:29:21.856Z,10.9
2019-01-25T09:32:21.939Z,5.7
2019-01-25T09:35:21.800Z,6.4
2019-01-25T09:38:21.464Z,5.6
2019-01-25T09:41:23.244Z,5.8
2019-01-25T09:44:21.748Z,5.7
2019-01-25T09:47:21.641Z,5.4
2019-01-25T09:50:21.757Z,10
2019-01-25T09:53:22.247Z,8
2019-01-25T09:56:22.337Z,8.8
2019-01-25T09:59:22.029Z,6.6
2019-01-25T10:02:21.622Z,6
2019-01-25T10:05:22.277Z,6.7
2019-01-25T10:08:21.624Z,6
2019-01-25T10:11:21.546Z,8.6
2019-01-25T10:14:21.350Z,5.2
2019-01-25T10:17:21.844Z,5.6
2019-01-25T10:20:21.978Z,5.9
2019-01-25T10:23:21.460Z,6
2019-01-25T10:26:23.622Z,5.5
2019-01-25T10:29:21.621Z,6
2019-01-25T10:32:22.021Z,5.6
2019-01-25T10:35:21.810Z,5.9
2019-01-25T10:38:21.640Z,5.6
2019-01-25T10:41:21.937Z,5.9
2019-01-25T10:44:22.796Z,5.3
2019-01-25T10:47:21.623Z,5.3
2019-01-25T10:50:21.573Z,5.4
2019-01-25T10:53:21.634Z,5
2019-01-25T10:56:22.251Z,5.2
2019-01-25T10:59:21.915Z,5
2019-01-25T11:02:21.357Z,4.8
2019-01-25T11:05:21.571Z,7
2019-01-25T11:08:21.593Z,5.1
2019-01-25T11:11:21.504Z,4.9
2019-01-25T11:14:21.394Z,4.7
2019-01-25T11:17:21.637Z,5.5
2019-01-25T11:20:22.135Z,5.3
2019-01-25T11:23:21.437Z,4.9
2019-01-25T11:26:23.618Z,5.8
2019-01-25T11:29:21.284Z,5.4
2019-01-25T11:32:21.993Z,4.4
2019-01-25T11:35:22.004Z,4.5
2019-01-25T11:38:21.703Z,5
2019-01-25T11:41:21.580Z,6.2
2019-01-25T11:44:22.208Z,6.1
2019-01-25T11:47:21.417Z,5.8
2019-01-25T11:50:21.828Z,6.3
2019-01-25T11:53:21.373Z,5.9
2019-01-25T11:56:22.937Z,5.5
2019-01-25T11:59:21.864Z,6
2019-01-25T12:02:21.632Z,8.9
2019-01-25T12:05:21.863Z,8.3
2019-01-25T12:08:21.461Z,8.6
2019-01-25T12:11:22.154Z,7.7
2019-01-25T12:14:21.451Z,6.7
2019-01-25T12:17:21.410Z,6.3
2019-01-25T12:20:23.231Z,6.3
2019-01-25T12:23:21.854Z,7.4
2019-01-25T12:26:21.948Z,5.5
2019-01-25T12:29:22.883Z,4.9
2019-01-25T12:32:22.011Z,5.6
2019-01-25T12:35:22.032Z,4.9
2019-01-25T12:38:23.109Z,5.8
2019-01-25T12:41:22.149Z,6.3
2019-01-25T12:44:21.567Z,4.8
2019-01-25T12:47:21.536Z,5
2019-01-25T12:50:22.022Z,4.4
2019-01-25T12:53:22.078Z,5.7
2019-01-25T12:56:21.609Z,5.4
2019-01-25T12:59:21.520Z,4.8
2019-01-25T13:02:21.371Z,5
2019-01-25T13:05:21.532Z,5.7
2019-01-25T13:08:21.965Z,5.4
2019-01-25T13:11:21.936Z,4.9
2019-01-25T13:14:21.616Z,8.4
2019-01-25T13:17:23.628Z,4.7
2019-01-25T13:20:21.452Z,6.2
2019-01-25T13:23:21.438Z,4.8
2019-01-25T13:26:21.584Z,5.1
2019-01-25T13:29:27.414Z,4.9
2019-01-25T13:32:23.102Z,5.1
2019-01-25T13:35:22.539Z,4.9
2019-01-25T13:38:21.848Z,5.6
2019-01-25T13:41:21.775Z,5
2019-01-25T13:44:21.775Z,4.5
2019-01-25T13:47:21.902Z,4.2
2019-01-25T13:50:22.077Z,6.4
2019-01-25T13:53:21.748Z,5.3
2019-01-25T13:56:21.607Z,4.7
2019-01-25T13:59:21.703Z,5.3
2019-01-25T14:02:21.488Z,4.3
2019-01-25T14:05:21.640Z,4.3
2019-01-25T14:08:22.136Z,4.6
2019-01-25T14:11:21.472Z,4.5
2019-01-25T14:14:21.941Z,4.3
2019-01-25T14:17:21.738Z,4.3
2019-01-25T14:20:24.010Z,4.2
2019-01-25T14:23:21.417Z,4.2
2019-01-25T14:26:21.814Z,4.2
2019-01-25T14:29:21.485Z,4
2019-01-25T14:32:21.459Z,4
2019-01-25T14:35:21.607Z,4.1
2019-01-25T14:38:21.806Z,5.9
2019-01-25T14:41:21.526Z,5.3
2019-01-25T14:44:21.936Z,5
2019-01-25T14:47:21.917Z,5.6
2019-01-25T14:50:21.396Z,4.5
2019-01-25T14:53:22.827Z,5.7
2019-01-25T14:56:22.027Z,4.4
2019-01-25T14:59:21.883Z,5.8
2019-01-25T15:02:21.775Z,5
2019-01-25T15:05:21.794Z,4.7
2019-01-25T15:08:22.085Z,4.9
2019-01-25T15:11:21.616Z,5.8
2019-01-25T15:14:22.282Z,4.8
2019-01-25T15:17:22.178Z,4.8
2019-01-25T15:20:21.570Z,4.4
2019-01-25T15:23:21.508Z,5.8
2019-01-25T15:26:22.068Z,4.8
2019-01-25T15:29:21.759Z,5
2019-01-25T15:32:21.532Z,4.4
2019-01-25T15:35:21.980Z,4.8
2019-01-25T15:38:21.396Z,4.4
2019-01-25T15:41:22.258Z,4.3
2019-01-25T15:44:21.362Z,8.5
2019-01-25T15:47:21.452Z,4.8
2019-01-25T15:50:22.618Z,5.1
2019-01-25T15:53:21.717Z,4.6
2019-01-25T15:56:21.543Z,5.9
2019-01-25T15:59:21.320Z,4.7
2019-01-25T16:02:21.605Z,4.6
2019-01-25T16:05:21.479Z,4.2
2019-01-25T16:08:21.418Z,4.5
2019-01-25T16:11:21.420Z,4.7
2019-01-25T16:14:23.310Z,4.7
2019-01-25T16:17:21.856Z,4.7
2019-01-25T16:20:21.589Z,4.7
2019-01-25T16:23:25.010Z,4.8
2019-01-25T16:26:21.516Z,4.8
2019-01-25T16:29:21.879Z,5.6
2019-01-25T16:32:23.448Z,5.1
2019-01-25T16:35:21.496Z,4.7
2019-01-25T16:38:21.572Z,5
2019-01-25T16:41:21.559Z,4.5
2019-01-25T16:44:26.136Z,4.7
2019-01-25T16:47:21.541Z,4.4
2019-01-25T16:50:24.504Z,5.5
2019-01-25T16:53:21.706Z,4.2
2019-01-25T16:56:21.546Z,4.3
2019-01-25T16:59:21.446Z,4.5
2019-01-25T17:02:22.033Z,4.2
2019-01-25T17:05:21.400Z,4.1
2019-01-25T17:08:22.086Z,4.3
2019-01-25T17:11:21.510Z,3.9
2019-01-25T17:14:21.914Z,4.2
2019-01-25T17:17:21.820Z,4.7
2019-01-25T17:20:21.951Z,4.2
2019-01-25T17:23:21.277Z,4.1
2019-01-25T17:26:21.537Z,4.9
2019-01-25T17:29:21.821Z,7.6
2019-01-25T17:32:21.815Z,5.2
2019-01-25T17:35:22.375Z,4.4
2019-01-25T17:38:21.788Z,4.3
2019-01-25T17:41:21.847Z,5.1
2019-01-25T17:44:21.951Z,5
2019-01-25T17:47:22.481Z,4.5
2019-01-25T17:50:21.368Z,4.3
2019-01-25T17:53:21.928Z,4.3
2019-01-25T17:56:26.871Z,4.3
2019-01-25T17:59:21.363Z,4.8
2019-01-25T18:02:21.850Z,5.2
2019-01-25T18:05:21.602Z,4.2
2019-01-25T18:08:21.532Z,3.9
2019-01-25T18:11:22.179Z,3.9
2019-01-25T18:14:21.204Z,4.7
2019-01-25T18:17:23.273Z,3.9
2019-01-25T18:20:21.813Z,4
2019-01-25T18:23:21.297Z,4.1
2019-01-25T18:26:21.709Z,4
2019-01-25T18:29:21.414Z,3.9
2019-01-25T18:32:21.426Z,3.9
2019-01-25T18:35:21.388Z,4
2019-01-25T18:38:21.662Z,3.6
2019-01-25T18:41:21.821Z,5
2019-01-25T18:44:21.530Z,4.1
2019-01-25T18:47:21.471Z,4.6
2019-01-25T18:50:21.811Z,5.1
2019-01-25T18:53:22.225Z,5.7
2019-01-25T18:56:21.367Z,4.9
2019-01-25T18:59:21.357Z,4.7
2019-01-25T19:02:21.792Z,4.8
2019-01-25T19:05:21.820Z,5
2019-01-25T19:08:21.417Z,4.9
2019-01-25T19:11:21.530Z,6
2019-01-25T19:14:21.252Z,5.1
2019-01-25T19:17:21.230Z,4.4
2019-01-25T19:20:21.841Z,7.1
2019-01-25T19:23:21.344Z,4.7
2019-01-25T19:26:23.818Z,5.1
2019-01-25T19:29:21.828Z,4.3
2019-01-25T19:32:21.752Z,4.7
2019-01-25T19:35:21.447Z,4.2
2019-01-25T19:38:21.698Z,4.3
2019-01-25T19:41:21.587Z,4.7
2019-01-25T19:44:22.061Z,4.3
2019-01-25T19:47:21.896Z,4.4
2019-01-25T19:50:21.827Z,4.7
2019-01-25T19:53:23.985Z,4.2
2019-01-25T19:56:21.321Z,4.3
2019-01-25T19:59:22.549Z,5
2019-01-25T20:02:21.496Z,3.8
2019-01-25T20:05:21.380Z,4.2
2019-01-25T20:08:21.714Z,5
2019-01-25T20:11:21.583Z,3.8
2019-01-25T20:14:21.583Z,4.2
2019-01-25T20:17:21.545Z,4.7
2019-01-25T20:20:21.350Z,4
2019-01-25T20:23:21.924Z,4.3
2019-01-25T20:26:22.383Z,5.5
2019-01-25T20:29:21.910Z,4.2
2019-01-25T20:32:21.213Z,4.3
2019-01-25T20:35:21.527Z,4.3
2019-01-25T20:38:25.206Z,5.2
2019-01-25T20:41:21.574Z,4.9
2019-01-25T20:44:21.415Z,6.2
2019-01-25T20:47:22.044Z,5.2
2019-01-25T20:50:21.353Z,6.6
2019-01-25T20:53:21.493Z,4.9
2019-01-25T20:56:21.647Z,4.7
2019-01-25T20:59:21.611Z,4.5
2019-01-25T21:02:21.402Z,6.5
2019-01-25T21:05:21.393Z,4.3
2019-01-25T21:08:21.573Z,4.8
2019-01-25T21:11:21.587Z,4
2019-01-25T21:14:21.278Z,4.1
2019-01-25T21:17:21.885Z,4.1
2019-01-25T21:20:21.854Z,4.9
2019-01-25T21:23:21.741Z,4.6
2019-01-25T21:26:23.570Z,3.9
2019-01-25T21:29:22.243Z,4.1
2019-01-25T21:32:22.090Z,4.4
2019-01-25T21:35:21.583Z,4.6
2019-01-25T21:38:21.652Z,4.9
2019-01-25T21:41:23.519Z,4.2
2019-01-25T21:44:22.108Z,3.8
2019-01-25T21:47:23.138Z,3.6
2019-01-25T21:50:21.923Z,4
2019-01-25T21:53:21.616Z,5.2
2019-01-25T21:56:22.282Z,4.2
2019-01-25T21:59:21.646Z,4.3
2019-01-25T22:02:21.919Z,4.1
2019-01-25T22:05:21.889Z,3.8
2019-01-25T22:08:21.480Z,3.9
2019-01-25T22:11:21.746Z,4.2
2019-01-25T22:14:21.336Z,3.8
2019-01-25T22:17:21.611Z,3.5
2019-01-25T22:20:21.755Z,3.9
2019-01-25T22:23:21.863Z,3.7
2019-01-25T22:26:21.581Z,3.8
2019-01-25T22:29:23.389Z,4.2
2019-01-25T22:32:22.047Z,3.9
2019-01-25T22:35:21.523Z,3.7
2019-01-25T22:38:21.714Z,3.5
2019-01-25T22:41:21.142Z,3.5
2019-01-25T22:44:21.658Z,3.8
2019-01-25T22:47:21.790Z,3.7
2019-01-25T22:50:21.394Z,4.2
2019-01-25T22:53:21.646Z,3.4
2019-01-25T22:56:21.261Z,3.5
2019-01-25T22:59:21.734Z,3.5
2019-01-25T23:02:21.796Z,3.5
2019-01-25T23:05:21.175Z,3.5
2019-01-25T23:08:21.701Z,4
2019-01-25T23:11:22.180Z,3.5
2019-01-25T23:14:21.325Z,3.4
2019-01-25T23:17:21.361Z,3.6
2019-01-25T23:20:21.394Z,3.4
2019-01-25T23:23:21.409Z,3.6
2019-01-25T23:26:21.296Z,3.3
2019-01-25T23:29:21.583Z,4.6
2019-01-25T23:32:21.914Z,3.6
2019-01-25T23:35:22.275Z,3.4
2019-01-25T23:38:21.683Z,3.6
2019-01-25T23:41:21.841Z,3.4
2019-01-25T23:44:21.608Z,3.3
2019-01-25T23:47:23.086Z,3.6
2019-01-25T23:50:21.136Z,3.5
2019-01-25T23:53:21.443Z,3.5
2019-01-25T23:56:21.344Z,3.5
2019-01-25T23:59:21.442Z,3.3
